sensor_id;sensor_type;location;lat;lon;timestamp;P1;durP1;ratioP1;P2;durP2;ratioP2
65009;SDS011;51556;50.002;22.014;2023-07-30T00:01:50;2.90;;;1.40;;
65009;SDS011;51556;50.002;22.014;2023-07-30T00:04:16;5.10;;;1.80;;
65009;SDS011;51556;50.002;22.014;2023-07-30T00:06:41;3.70;;;1.80;;
65009;SDS011;51556;50.002;22.014;2023-07-30T00:09:07;5.30;;;1.60;;
65009;SDS011;51556;50.002;22.014;2023-07-30T00:11:32;4.40;;;1.60;;
65009;SDS011;51556;50.002;22.014;2023-07-30T00:13:58;4.00;;;1.60;;
65009;SDS011;51556;50.002;22.014;2023-07-30T00:16:25;3.10;;;1.90;;
65009;SDS011;51556;50.002;22.014;2023-07-30T00:18:51;3.30;;;1.40;;
65009;SDS011;51556;50.002;22.014;2023-07-30T00:21:16;2.60;;;1.20;;
65009;SDS011;51556;50.002;22.014;2023-07-30T00:23:42;2.40;;;1.60;;
65009;SDS011;51556;50.002;22.014;2023-07-30T00:26:07;3.90;;;1.80;;
65009;SDS011;51556;50.002;22.014;2023-07-30T00:28:32;4.90;;;1.80;;
65009;SDS011;51556;50.002;22.014;2023-07-30T00:30:58;3.60;;;1.50;;
65009;SDS011;51556;50.002;22.014;2023-07-30T00:33:23;1.90;;;1.30;;
65009;SDS011;51556;50.002;22.014;2023-07-30T00:35:50;5.60;;;1.70;;
65009;SDS011;51556;50.002;22.014;2023-07-30T00:38:17;3.10;;;1.60;;
65009;SDS011;51556;50.002;22.014;2023-07-30T00:40:43;3.90;;;1.90;;
65009;SDS011;51556;50.002;22.014;2023-07-30T00:43:09;2.80;;;1.80;;
65009;SDS011;51556;50.002;22.014;2023-07-30T00:45:34;2.80;;;1.50;;
65009;SDS011;51556;50.002;22.014;2023-07-30T00:48:01;4.20;;;1.60;;
65009;SDS011;51556;50.002;22.014;2023-07-30T00:50:27;2.20;;;1.50;;
65009;SDS011;51556;50.002;22.014;2023-07-30T00:52:52;2.40;;;1.70;;
65009;SDS011;51556;50.002;22.014;2023-07-30T00:55:18;2.70;;;1.60;;
65009;SDS011;51556;50.002;22.014;2023-07-30T00:57:43;3.20;;;1.60;;
65009;SDS011;51556;50.002;22.014;2023-07-30T01:00:10;2.50;;;1.50;;
65009;SDS011;51556;50.002;22.014;2023-07-30T01:02:37;2.60;;;1.40;;
65009;SDS011;51556;50.002;22.014;2023-07-30T01:05:02;3.80;;;1.80;;
65009;SDS011;51556;50.002;22.014;2023-07-30T01:07:29;2.40;;;1.50;;
65009;SDS011;51556;50.002;22.014;2023-07-30T01:09:55;1.90;;;1.40;;
65009;SDS011;51556;50.002;22.014;2023-07-30T01:12:21;2.60;;;1.40;;
65009;SDS011;51556;50.002;22.014;2023-07-30T01:14:47;2.30;;;1.60;;
65009;SDS011;51556;50.002;22.014;2023-07-30T01:17:13;2.50;;;1.70;;
65009;SDS011;51556;50.002;22.014;2023-07-30T01:19:39;3.70;;;1.60;;
65009;SDS011;51556;50.002;22.014;2023-07-30T01:22:04;2.70;;;1.70;;
65009;SDS011;51556;50.002;22.014;2023-07-30T01:24:30;2.80;;;1.60;;
65009;SDS011;51556;50.002;22.014;2023-07-30T01:26:56;3.40;;;1.50;;
65009;SDS011;51556;50.002;22.014;2023-07-30T01:29:33;4.50;;;2.10;;
65009;SDS011;51556;50.002;22.014;2023-07-30T01:32:07;2.10;;;1.60;;
65009;SDS011;51556;50.002;22.014;2023-07-30T01:34:35;2.30;;;1.60;;
65009;SDS011;51556;50.002;22.014;2023-07-30T01:37:02;3.60;;;1.70;;
65009;SDS011;51556;50.002;22.014;2023-07-30T01:39:29;3.30;;;1.80;;
65009;SDS011;51556;50.002;22.014;2023-07-30T01:41:57;2.60;;;1.70;;
65009;SDS011;51556;50.002;22.014;2023-07-30T01:44:22;4.50;;;2.10;;
65009;SDS011;51556;50.002;22.014;2023-07-30T01:46:48;4.30;;;2.50;;
65009;SDS011;51556;50.002;22.014;2023-07-30T01:49:13;3.40;;;2.10;;
65009;SDS011;51556;50.002;22.014;2023-07-30T01:51:39;4.50;;;2.70;;
65009;SDS011;51556;50.002;22.014;2023-07-30T01:54:04;7.70;;;2.50;;
65009;SDS011;51556;50.002;22.014;2023-07-30T01:56:30;3.10;;;2.10;;
65009;SDS011;51556;50.002;22.014;2023-07-30T01:58:55;2.90;;;1.70;;
65009;SDS011;51556;50.002;22.014;2023-07-30T02:01:21;3.70;;;1.80;;
65009;SDS011;51556;50.002;22.014;2023-07-30T02:03:46;3.50;;;1.90;;
65009;SDS011;51556;50.002;22.014;2023-07-30T02:06:12;2.80;;;1.80;;
65009;SDS011;51556;50.002;22.014;2023-07-30T02:08:37;3.10;;;1.80;;
65009;SDS011;51556;50.002;22.014;2023-07-30T02:11:03;4.10;;;2.10;;
65009;SDS011;51556;50.002;22.014;2023-07-30T02:13:29;4.30;;;1.90;;
65009;SDS011;51556;50.002;22.014;2023-07-30T02:15:54;3.50;;;1.70;;
65009;SDS011;51556;50.002;22.014;2023-07-30T02:18:19;4.80;;;1.60;;
65009;SDS011;51556;50.002;22.014;2023-07-30T02:20:45;2.30;;;1.70;;
65009;SDS011;51556;50.002;22.014;2023-07-30T02:23:10;3.40;;;1.50;;
65009;SDS011;51556;50.002;22.014;2023-07-30T02:25:37;3.10;;;1.70;;
65009;SDS011;51556;50.002;22.014;2023-07-30T02:28:03;3.40;;;1.70;;
65009;SDS011;51556;50.002;22.014;2023-07-30T02:30:28;4.20;;;2.00;;
65009;SDS011;51556;50.002;22.014;2023-07-30T02:32:54;5.70;;;2.10;;
65009;SDS011;51556;50.002;22.014;2023-07-30T02:35:19;2.40;;;1.80;;
65009;SDS011;51556;50.002;22.014;2023-07-30T02:37:45;5.10;;;1.90;;
65009;SDS011;51556;50.002;22.014;2023-07-30T02:40:10;3.10;;;1.70;;
65009;SDS011;51556;50.002;22.014;2023-07-30T02:42:36;5.90;;;1.60;;
65009;SDS011;51556;50.002;22.014;2023-07-30T02:45:01;4.90;;;2.00;;
65009;SDS011;51556;50.002;22.014;2023-07-30T02:47:27;2.80;;;1.60;;
65009;SDS011;51556;50.002;22.014;2023-07-30T02:49:53;3.20;;;1.60;;
65009;SDS011;51556;50.002;22.014;2023-07-30T02:52:19;4.40;;;2.10;;
65009;SDS011;51556;50.002;22.014;2023-07-30T02:54:44;2.80;;;1.90;;
65009;SDS011;51556;50.002;22.014;2023-07-30T02:57:10;4.00;;;1.80;;
65009;SDS011;51556;50.002;22.014;2023-07-30T02:59:36;2.80;;;1.70;;
65009;SDS011;51556;50.002;22.014;2023-07-30T03:02:02;3.80;;;1.60;;
65009;SDS011;51556;50.002;22.014;2023-07-30T03:04:30;2.10;;;1.60;;
65009;SDS011;51556;50.002;22.014;2023-07-30T03:06:55;2.70;;;1.70;;
65009;SDS011;51556;50.002;22.014;2023-07-30T03:09:21;4.60;;;2.00;;
65009;SDS011;51556;50.002;22.014;2023-07-30T03:11:47;4.00;;;1.80;;
65009;SDS011;51556;50.002;22.014;2023-07-30T03:14:12;3.40;;;1.50;;
65009;SDS011;51556;50.002;22.014;2023-07-30T03:16:38;3.70;;;1.60;;
65009;SDS011;51556;50.002;22.014;2023-07-30T03:19:03;3.10;;;1.70;;
65009;SDS011;51556;50.002;22.014;2023-07-30T03:21:29;2.90;;;1.70;;
65009;SDS011;51556;50.002;22.014;2023-07-30T03:23:54;2.00;;;1.60;;
65009;SDS011;51556;50.002;22.014;2023-07-30T03:26:19;4.20;;;1.60;;
65009;SDS011;51556;50.002;22.014;2023-07-30T03:28:45;3.80;;;1.80;;
65009;SDS011;51556;50.002;22.014;2023-07-30T03:31:10;2.60;;;1.80;;
65009;SDS011;51556;50.002;22.014;2023-07-30T03:33:36;2.40;;;1.80;;
65009;SDS011;51556;50.002;22.014;2023-07-30T03:36:04;3.10;;;1.80;;
65009;SDS011;51556;50.002;22.014;2023-07-30T03:38:29;4.40;;;1.70;;
65009;SDS011;51556;50.002;22.014;2023-07-30T03:40:55;2.50;;;1.70;;
65009;SDS011;51556;50.002;22.014;2023-07-30T03:43:20;3.20;;;1.80;;
65009;SDS011;51556;50.002;22.014;2023-07-30T03:45:46;4.10;;;1.60;;
65009;SDS011;51556;50.002;22.014;2023-07-30T03:48:11;2.20;;;1.60;;
65009;SDS011;51556;50.002;22.014;2023-07-30T03:50:37;2.20;;;1.60;;
65009;SDS011;51556;50.002;22.014;2023-07-30T03:53:02;3.40;;;2.30;;
65009;SDS011;51556;50.002;22.014;2023-07-30T03:55:28;2.20;;;1.90;;
65009;SDS011;51556;50.002;22.014;2023-07-30T03:57:53;2.10;;;1.90;;
65009;SDS011;51556;50.002;22.014;2023-07-30T04:00:19;4.30;;;1.70;;
65009;SDS011;51556;50.002;22.014;2023-07-30T04:02:44;3.00;;;1.80;;
65009;SDS011;51556;50.002;22.014;2023-07-30T04:05:10;3.50;;;1.80;;
65009;SDS011;51556;50.002;22.014;2023-07-30T04:07:35;3.60;;;1.80;;
65009;SDS011;51556;50.002;22.014;2023-07-30T04:10:00;2.90;;;1.90;;
65009;SDS011;51556;50.002;22.014;2023-07-30T04:12:26;5.10;;;1.60;;
65009;SDS011;51556;50.002;22.014;2023-07-30T04:14:51;3.70;;;2.10;;
65009;SDS011;51556;50.002;22.014;2023-07-30T04:17:17;4.20;;;1.90;;
65009;SDS011;51556;50.002;22.014;2023-07-30T04:19:42;3.10;;;2.00;;
65009;SDS011;51556;50.002;22.014;2023-07-30T04:22:08;3.50;;;1.80;;
65009;SDS011;51556;50.002;22.014;2023-07-30T04:24:33;2.30;;;1.50;;
65009;SDS011;51556;50.002;22.014;2023-07-30T04:27:00;3.00;;;1.80;;
65009;SDS011;51556;50.002;22.014;2023-07-30T04:29:25;2.70;;;1.70;;
65009;SDS011;51556;50.002;22.014;2023-07-30T04:31:51;3.20;;;1.60;;
65009;SDS011;51556;50.002;22.014;2023-07-30T04:34:16;2.60;;;1.50;;
65009;SDS011;51556;50.002;22.014;2023-07-30T04:36:42;2.20;;;1.70;;
65009;SDS011;51556;50.002;22.014;2023-07-30T04:39:07;2.40;;;1.90;;
65009;SDS011;51556;50.002;22.014;2023-07-30T04:41:33;2.20;;;1.70;;
65009;SDS011;51556;50.002;22.014;2023-07-30T04:43:58;3.40;;;1.50;;
65009;SDS011;51556;50.002;22.014;2023-07-30T04:46:24;2.70;;;2.00;;
65009;SDS011;51556;50.002;22.014;2023-07-30T04:48:50;4.30;;;1.70;;
65009;SDS011;51556;50.002;22.014;2023-07-30T04:51:16;4.30;;;1.90;;
65009;SDS011;51556;50.002;22.014;2023-07-30T04:53:41;2.50;;;1.30;;
65009;SDS011;51556;50.002;22.014;2023-07-30T04:56:07;2.30;;;1.70;;
65009;SDS011;51556;50.002;22.014;2023-07-30T04:58:32;2.30;;;1.80;;
65009;SDS011;51556;50.002;22.014;2023-07-30T05:00:58;1.70;;;1.30;;
65009;SDS011;51556;50.002;22.014;2023-07-30T05:03:23;3.70;;;1.60;;
65009;SDS011;51556;50.002;22.014;2023-07-30T05:05:48;3.80;;;2.00;;
65009;SDS011;51556;50.002;22.014;2023-07-30T05:08:14;3.90;;;1.80;;
65009;SDS011;51556;50.002;22.014;2023-07-30T05:10:39;2.90;;;1.60;;
65009;SDS011;51556;50.002;22.014;2023-07-30T05:13:05;2.80;;;1.30;;
65009;SDS011;51556;50.002;22.014;2023-07-30T05:15:30;1.80;;;1.40;;
65009;SDS011;51556;50.002;22.014;2023-07-30T05:17:56;3.90;;;1.90;;
65009;SDS011;51556;50.002;22.014;2023-07-30T05:20:21;3.00;;;1.60;;
65009;SDS011;51556;50.002;22.014;2023-07-30T05:22:47;2.20;;;1.70;;
65009;SDS011;51556;50.002;22.014;2023-07-30T05:25:12;3.00;;;1.70;;
65009;SDS011;51556;50.002;22.014;2023-07-30T05:27:37;1.90;;;1.70;;
65009;SDS011;51556;50.002;22.014;2023-07-30T05:30:03;3.10;;;2.00;;
65009;SDS011;51556;50.002;22.014;2023-07-30T05:32:29;1.90;;;1.60;;
65009;SDS011;51556;50.002;22.014;2023-07-30T05:34:54;4.40;;;1.70;;
65009;SDS011;51556;50.002;22.014;2023-07-30T05:37:20;1.60;;;1.50;;
65009;SDS011;51556;50.002;22.014;2023-07-30T05:39:45;3.00;;;1.80;;
65009;SDS011;51556;50.002;22.014;2023-07-30T05:42:11;5.10;;;1.90;;
65009;SDS011;51556;50.002;22.014;2023-07-30T05:44:36;1.50;;;1.40;;
65009;SDS011;51556;50.002;22.014;2023-07-30T05:47:02;2.70;;;1.70;;
65009;SDS011;51556;50.002;22.014;2023-07-30T05:49:27;3.20;;;1.40;;
65009;SDS011;51556;50.002;22.014;2023-07-30T05:51:53;3.10;;;1.50;;
65009;SDS011;51556;50.002;22.014;2023-07-30T05:54:18;2.10;;;1.00;;
65009;SDS011;51556;50.002;22.014;2023-07-30T05:56:44;2.00;;;1.00;;
65009;SDS011;51556;50.002;22.014;2023-07-30T05:59:09;1.60;;;1.00;;
65009;SDS011;51556;50.002;22.014;2023-07-30T06:01:35;1.40;;;0.90;;
65009;SDS011;51556;50.002;22.014;2023-07-30T06:04:00;1.50;;;1.10;;
65009;SDS011;51556;50.002;22.014;2023-07-30T06:06:26;2.70;;;1.30;;
65009;SDS011;51556;50.002;22.014;2023-07-30T06:08:54;3.60;;;1.00;;
65009;SDS011;51556;50.002;22.014;2023-07-30T06:11:20;1.50;;;1.00;;
65009;SDS011;51556;50.002;22.014;2023-07-30T06:13:46;1.60;;;0.90;;
65009;SDS011;51556;50.002;22.014;2023-07-30T06:16:13;1.70;;;1.10;;
65009;SDS011;51556;50.002;22.014;2023-07-30T06:18:39;4.10;;;1.40;;
65009;SDS011;51556;50.002;22.014;2023-07-30T06:21:04;1.90;;;0.90;;
65009;SDS011;51556;50.002;22.014;2023-07-30T06:23:30;2.20;;;1.00;;
65009;SDS011;51556;50.002;22.014;2023-07-30T06:25:55;1.70;;;1.00;;
65009;SDS011;51556;50.002;22.014;2023-07-30T06:28:20;4.60;;;1.00;;
65009;SDS011;51556;50.002;22.014;2023-07-30T06:30:46;1.20;;;0.90;;
65009;SDS011;51556;50.002;22.014;2023-07-30T06:33:11;1.20;;;0.90;;
65009;SDS011;51556;50.002;22.014;2023-07-30T06:35:37;4.10;;;1.20;;
65009;SDS011;51556;50.002;22.014;2023-07-30T06:38:02;1.80;;;1.30;;
65009;SDS011;51556;50.002;22.014;2023-07-30T06:40:28;1.40;;;1.00;;
65009;SDS011;51556;50.002;22.014;2023-07-30T06:42:53;2.20;;;1.10;;
65009;SDS011;51556;50.002;22.014;2023-07-30T06:45:19;3.10;;;0.80;;
65009;SDS011;51556;50.002;22.014;2023-07-30T06:47:45;1.70;;;1.10;;
65009;SDS011;51556;50.002;22.014;2023-07-30T06:50:10;2.90;;;1.10;;
65009;SDS011;51556;50.002;22.014;2023-07-30T06:52:36;3.00;;;1.10;;
65009;SDS011;51556;50.002;22.014;2023-07-30T06:55:02;3.50;;;1.10;;
65009;SDS011;51556;50.002;22.014;2023-07-30T06:57:28;1.50;;;1.10;;
65009;SDS011;51556;50.002;22.014;2023-07-30T06:59:54;2.20;;;1.00;;
65009;SDS011;51556;50.002;22.014;2023-07-30T07:02:20;2.50;;;1.00;;
65009;SDS011;51556;50.002;22.014;2023-07-30T07:04:45;1.50;;;1.00;;
65009;SDS011;51556;50.002;22.014;2023-07-30T07:07:11;1.60;;;1.10;;
65009;SDS011;51556;50.002;22.014;2023-07-30T07:09:36;1.60;;;1.00;;
65009;SDS011;51556;50.002;22.014;2023-07-30T07:12:02;1.90;;;1.20;;
65009;SDS011;51556;50.002;22.014;2023-07-30T07:14:28;3.50;;;1.20;;
65009;SDS011;51556;50.002;22.014;2023-07-30T07:16:54;1.80;;;1.20;;
65009;SDS011;51556;50.002;22.014;2023-07-30T07:19:21;1.50;;;1.10;;
65009;SDS011;51556;50.002;22.014;2023-07-30T07:21:47;1.40;;;0.80;;
65009;SDS011;51556;50.002;22.014;2023-07-30T07:24:12;1.90;;;1.10;;
65009;SDS011;51556;50.002;22.014;2023-07-30T07:26:37;2.80;;;1.10;;
65009;SDS011;51556;50.002;22.014;2023-07-30T07:29:03;2.30;;;1.20;;
65009;SDS011;51556;50.002;22.014;2023-07-30T07:31:28;2.30;;;1.30;;
65009;SDS011;51556;50.002;22.014;2023-07-30T07:33:54;2.10;;;1.00;;
65009;SDS011;51556;50.002;22.014;2023-07-30T07:36:19;1.60;;;0.80;;
65009;SDS011;51556;50.002;22.014;2023-07-30T07:38:45;1.50;;;1.10;;
65009;SDS011;51556;50.002;22.014;2023-07-30T07:41:14;1.60;;;0.90;;
65009;SDS011;51556;50.002;22.014;2023-07-30T07:46:06;1.50;;;1.10;;
65009;SDS011;51556;50.002;22.014;2023-07-30T07:48:38;2.30;;;1.00;;
65009;SDS011;51556;50.002;22.014;2023-07-30T07:51:07;3.00;;;1.10;;
65009;SDS011;51556;50.002;22.014;2023-07-30T07:53:33;2.40;;;1.20;;
65009;SDS011;51556;50.002;22.014;2023-07-30T07:55:59;3.70;;;1.40;;
65009;SDS011;51556;50.002;22.014;2023-07-30T07:58:24;3.00;;;1.10;;
65009;SDS011;51556;50.002;22.014;2023-07-30T08:00:50;1.20;;;0.70;;
65009;SDS011;51556;50.002;22.014;2023-07-30T08:03:15;1.40;;;0.80;;
65009;SDS011;51556;50.002;22.014;2023-07-30T08:05:40;1.00;;;0.70;;
65009;SDS011;51556;50.002;22.014;2023-07-30T08:08:06;1.10;;;0.90;;
65009;SDS011;51556;50.002;22.014;2023-07-30T08:10:31;3.40;;;1.10;;
65009;SDS011;51556;50.002;22.014;2023-07-30T08:12:57;1.80;;;0.60;;
65009;SDS011;51556;50.002;22.014;2023-07-30T08:15:22;1.60;;;1.00;;
65009;SDS011;51556;50.002;22.014;2023-07-30T08:17:48;0.90;;;0.80;;
65009;SDS011;51556;50.002;22.014;2023-07-30T08:20:13;2.30;;;0.80;;
65009;SDS011;51556;50.002;22.014;2023-07-30T08:22:38;1.20;;;0.80;;
65009;SDS011;51556;50.002;22.014;2023-07-30T08:25:04;1.40;;;1.00;;
65009;SDS011;51556;50.002;22.014;2023-07-30T08:27:30;3.10;;;1.20;;
65009;SDS011;51556;50.002;22.014;2023-07-30T08:29:55;1.20;;;0.70;;
65009;SDS011;51556;50.002;22.014;2023-07-30T08:32:21;1.70;;;1.10;;
65009;SDS011;51556;50.002;22.014;2023-07-30T08:34:46;2.00;;;0.80;;
65009;SDS011;51556;50.002;22.014;2023-07-30T08:37:12;1.80;;;1.10;;
65009;SDS011;51556;50.002;22.014;2023-07-30T08:39:37;0.50;;;0.50;;
65009;SDS011;51556;50.002;22.014;2023-07-30T08:42:03;1.70;;;0.80;;
65009;SDS011;51556;50.002;22.014;2023-07-30T08:44:29;0.80;;;0.60;;
65009;SDS011;51556;50.002;22.014;2023-07-30T08:46:54;2.60;;;0.60;;
65009;SDS011;51556;50.002;22.014;2023-07-30T08:49:20;1.70;;;0.90;;
65009;SDS011;51556;50.002;22.014;2023-07-30T08:51:45;1.40;;;0.70;;
65009;SDS011;51556;50.002;22.014;2023-07-30T08:54:17;0.80;;;0.70;;
65009;SDS011;51556;50.002;22.014;2023-07-30T08:56:45;1.00;;;0.70;;
65009;SDS011;51556;50.002;22.014;2023-07-30T08:59:12;1.30;;;0.80;;
65009;SDS011;51556;50.002;22.014;2023-07-30T09:01:39;2.30;;;0.70;;
65009;SDS011;51556;50.002;22.014;2023-07-30T09:04:06;1.60;;;0.80;;
65009;SDS011;51556;50.002;22.014;2023-07-30T09:06:34;1.90;;;0.80;;
65009;SDS011;51556;50.002;22.014;2023-07-30T09:09:01;2.30;;;1.10;;
65009;SDS011;51556;50.002;22.014;2023-07-30T09:11:27;1.40;;;0.90;;
65009;SDS011;51556;50.002;22.014;2023-07-30T09:13:53;1.10;;;1.00;;
65009;SDS011;51556;50.002;22.014;2023-07-30T09:16:25;1.20;;;0.90;;
65009;SDS011;51556;50.002;22.014;2023-07-30T09:18:52;2.50;;;0.80;;
65009;SDS011;51556;50.002;22.014;2023-07-30T09:21:18;1.10;;;0.70;;
65009;SDS011;51556;50.002;22.014;2023-07-30T09:23:45;1.60;;;0.80;;
65009;SDS011;51556;50.002;22.014;2023-07-30T09:26:12;1.40;;;0.80;;
65009;SDS011;51556;50.002;22.014;2023-07-30T09:28:39;1.80;;;1.00;;
65009;SDS011;51556;50.002;22.014;2023-07-30T09:31:08;1.90;;;1.00;;
65009;SDS011;51556;50.002;22.014;2023-07-30T09:33:35;1.20;;;0.80;;
65009;SDS011;51556;50.002;22.014;2023-07-30T09:36:07;1.60;;;0.90;;
65009;SDS011;51556;50.002;22.014;2023-07-30T09:38:41;4.70;;;0.80;;
65009;SDS011;51556;50.002;22.014;2023-07-30T09:41:07;1.20;;;0.70;;
65009;SDS011;51556;50.002;22.014;2023-07-30T09:43:34;1.80;;;0.70;;
65009;SDS011;51556;50.002;22.014;2023-07-30T09:46:01;1.70;;;0.70;;
65009;SDS011;51556;50.002;22.014;2023-07-30T09:48:31;0.80;;;0.70;;
65009;SDS011;51556;50.002;22.014;2023-07-30T09:51:01;1.70;;;1.00;;
65009;SDS011;51556;50.002;22.014;2023-07-30T09:53:29;1.40;;;0.80;;
65009;SDS011;51556;50.002;22.014;2023-07-30T09:55:59;1.20;;;0.80;;
65009;SDS011;51556;50.002;22.014;2023-07-30T09:58:25;1.80;;;0.80;;
65009;SDS011;51556;50.002;22.014;2023-07-30T10:00:51;1.30;;;1.00;;
65009;SDS011;51556;50.002;22.014;2023-07-30T10:03:17;3.80;;;0.90;;
65009;SDS011;51556;50.002;22.014;2023-07-30T10:05:43;0.80;;;0.60;;
65009;SDS011;51556;50.002;22.014;2023-07-30T10:08:14;1.10;;;0.70;;
65009;SDS011;51556;50.002;22.014;2023-07-30T10:10:48;1.70;;;0.80;;
65009;SDS011;51556;50.002;22.014;2023-07-30T10:13:15;2.00;;;0.90;;
65009;SDS011;51556;50.002;22.014;2023-07-30T10:15:43;2.80;;;0.90;;
65009;SDS011;51556;50.002;22.014;2023-07-30T10:18:11;1.10;;;0.90;;
65009;SDS011;51556;50.002;22.014;2023-07-30T10:20:36;2.90;;;0.90;;
65009;SDS011;51556;50.002;22.014;2023-07-30T10:23:03;1.80;;;0.80;;
65009;SDS011;51556;50.002;22.014;2023-07-30T10:25:52;1.70;;;0.90;;
65009;SDS011;51556;50.002;22.014;2023-07-30T10:30:56;1.40;;;0.80;;
65009;SDS011;51556;50.002;22.014;2023-07-30T10:33:23;1.00;;;0.80;;
65009;SDS011;51556;50.002;22.014;2023-07-30T10:35:52;0.90;;;0.70;;
65009;SDS011;51556;50.002;22.014;2023-07-30T10:38:21;1.80;;;0.80;;
65009;SDS011;51556;50.002;22.014;2023-07-30T10:43:37;4.60;;;1.30;;
65009;SDS011;51556;50.002;22.014;2023-07-30T10:48:39;1.00;;;0.90;;
65009;SDS011;51556;50.002;22.014;2023-07-30T10:51:06;1.90;;;0.90;;
65009;SDS011;51556;50.002;22.014;2023-07-30T10:53:34;1.10;;;0.70;;
65009;SDS011;51556;50.002;22.014;2023-07-30T10:56:04;1.00;;;0.70;;
65009;SDS011;51556;50.002;22.014;2023-07-30T10:58:31;2.30;;;0.90;;
65009;SDS011;51556;50.002;22.014;2023-07-30T11:00:58;1.00;;;0.80;;
65009;SDS011;51556;50.002;22.014;2023-07-30T11:03:26;2.50;;;0.80;;
65009;SDS011;51556;50.002;22.014;2023-07-30T11:05:53;1.40;;;0.90;;
65009;SDS011;51556;50.002;22.014;2023-07-30T11:08:19;1.40;;;0.80;;
65009;SDS011;51556;50.002;22.014;2023-07-30T11:10:47;3.30;;;1.20;;
65009;SDS011;51556;50.002;22.014;2023-07-30T11:13:12;1.10;;;0.80;;
65009;SDS011;51556;50.002;22.014;2023-07-30T11:15:42;1.10;;;0.70;;
65009;SDS011;51556;50.002;22.014;2023-07-30T11:18:09;2.80;;;1.00;;
65009;SDS011;51556;50.002;22.014;2023-07-30T11:20:35;1.60;;;0.90;;
65009;SDS011;51556;50.002;22.014;2023-07-30T11:23:02;1.90;;;0.90;;
65009;SDS011;51556;50.002;22.014;2023-07-30T11:25:27;1.10;;;0.80;;
65009;SDS011;51556;50.002;22.014;2023-07-30T11:27:53;1.40;;;1.20;;
65009;SDS011;51556;50.002;22.014;2023-07-30T11:30:18;1.40;;;1.00;;
65009;SDS011;51556;50.002;22.014;2023-07-30T11:32:45;3.40;;;1.00;;
65009;SDS011;51556;50.002;22.014;2023-07-30T11:35:13;1.40;;;1.10;;
65009;SDS011;51556;50.002;22.014;2023-07-30T11:37:41;3.30;;;1.20;;
65009;SDS011;51556;50.002;22.014;2023-07-30T11:40:08;2.00;;;1.30;;
65009;SDS011;51556;50.002;22.014;2023-07-30T11:42:38;1.30;;;0.70;;
65009;SDS011;51556;50.002;22.014;2023-07-30T11:45:19;1.40;;;1.00;;
65009;SDS011;51556;50.002;22.014;2023-07-30T11:47:46;1.30;;;1.00;;
65009;SDS011;51556;50.002;22.014;2023-07-30T11:50:12;1.90;;;1.00;;
65009;SDS011;51556;50.002;22.014;2023-07-30T11:52:51;1.70;;;0.90;;
65009;SDS011;51556;50.002;22.014;2023-07-30T11:55:21;2.20;;;1.50;;
65009;SDS011;51556;50.002;22.014;2023-07-30T11:57:48;1.40;;;1.10;;
65009;SDS011;51556;50.002;22.014;2023-07-30T12:00:14;2.40;;;1.00;;
65009;SDS011;51556;50.002;22.014;2023-07-30T12:02:39;1.60;;;1.20;;
65009;SDS011;51556;50.002;22.014;2023-07-30T12:05:05;2.10;;;0.90;;
65009;SDS011;51556;50.002;22.014;2023-07-30T12:07:32;1.90;;;1.10;;
65009;SDS011;51556;50.002;22.014;2023-07-30T12:10:11;3.10;;;1.10;;
65009;SDS011;51556;50.002;22.014;2023-07-30T12:12:44;2.00;;;1.70;;
65009;SDS011;51556;50.002;22.014;2023-07-30T12:15:11;1.60;;;1.00;;
65009;SDS011;51556;50.002;22.014;2023-07-30T12:17:37;1.10;;;0.90;;
65009;SDS011;51556;50.002;22.014;2023-07-30T12:20:04;2.70;;;1.10;;
65009;SDS011;51556;50.002;22.014;2023-07-30T12:22:32;1.10;;;0.80;;
65009;SDS011;51556;50.002;22.014;2023-07-30T12:24:59;1.90;;;1.40;;
65009;SDS011;51556;50.002;22.014;2023-07-30T12:27:25;1.60;;;1.10;;
65009;SDS011;51556;50.002;22.014;2023-07-30T12:29:51;1.20;;;1.00;;
65009;SDS011;51556;50.002;22.014;2023-07-30T12:32:16;2.20;;;1.00;;
65009;SDS011;51556;50.002;22.014;2023-07-30T12:34:42;6.90;;;1.40;;
65009;SDS011;51556;50.002;22.014;2023-07-30T12:37:07;1.80;;;1.30;;
65009;SDS011;51556;50.002;22.014;2023-07-30T12:39:34;1.20;;;1.10;;
65009;SDS011;51556;50.002;22.014;2023-07-30T12:42:00;1.60;;;1.10;;
65009;SDS011;51556;50.002;22.014;2023-07-30T12:44:25;1.50;;;1.10;;
65009;SDS011;51556;50.002;22.014;2023-07-30T12:46:51;3.20;;;1.10;;
65009;SDS011;51556;50.002;22.014;2023-07-30T12:49:16;3.30;;;1.00;;
65009;SDS011;51556;50.002;22.014;2023-07-30T12:51:54;4.00;;;1.20;;
65009;SDS011;51556;50.002;22.014;2023-07-30T12:54:20;1.80;;;1.00;;
65009;SDS011;51556;50.002;22.014;2023-07-30T12:56:46;1.40;;;0.90;;
65009;SDS011;51556;50.002;22.014;2023-07-30T12:59:11;1.50;;;1.00;;
65009;SDS011;51556;50.002;22.014;2023-07-30T13:01:37;1.00;;;0.90;;
65009;SDS011;51556;50.002;22.014;2023-07-30T13:04:03;1.30;;;1.20;;
65009;SDS011;51556;50.002;22.014;2023-07-30T13:06:28;1.90;;;0.90;;
65009;SDS011;51556;50.002;22.014;2023-07-30T13:08:54;1.30;;;1.10;;
65009;SDS011;51556;50.002;22.014;2023-07-30T13:11:20;1.80;;;1.10;;
65009;SDS011;51556;50.002;22.014;2023-07-30T13:13:46;2.00;;;1.00;;
65009;SDS011;51556;50.002;22.014;2023-07-30T13:16:12;1.70;;;1.00;;
65009;SDS011;51556;50.002;22.014;2023-07-30T13:18:37;1.30;;;1.00;;
65009;SDS011;51556;50.002;22.014;2023-07-30T13:21:03;3.70;;;1.50;;
65009;SDS011;51556;50.002;22.014;2023-07-30T13:23:29;1.40;;;1.00;;
65009;SDS011;51556;50.002;22.014;2023-07-30T13:25:55;1.10;;;1.00;;
65009;SDS011;51556;50.002;22.014;2023-07-30T13:28:21;7.30;;;4.30;;
65009;SDS011;51556;50.002;22.014;2023-07-30T13:30:49;5.60;;;3.00;;
65009;SDS011;51556;50.002;22.014;2023-07-30T13:33:16;2.20;;;1.80;;
65009;SDS011;51556;50.002;22.014;2023-07-30T13:35:41;3.10;;;1.80;;
65009;SDS011;51556;50.002;22.014;2023-07-30T13:38:07;1.30;;;1.00;;
65009;SDS011;51556;50.002;22.014;2023-07-30T13:40:33;3.30;;;1.60;;
65009;SDS011;51556;50.002;22.014;2023-07-30T13:42:58;2.40;;;1.20;;
65009;SDS011;51556;50.002;22.014;2023-07-30T13:45:54;4.20;;;2.10;;
65009;SDS011;51556;50.002;22.014;2023-07-30T13:48:20;5.10;;;3.00;;
65009;SDS011;51556;50.002;22.014;2023-07-30T13:50:45;3.20;;;2.30;;
65009;SDS011;51556;50.002;22.014;2023-07-30T13:53:11;1.70;;;1.10;;
65009;SDS011;51556;50.002;22.014;2023-07-30T13:55:37;2.20;;;1.50;;
65009;SDS011;51556;50.002;22.014;2023-07-30T13:58:03;2.90;;;2.30;;
65009;SDS011;51556;50.002;22.014;2023-07-30T14:00:29;3.70;;;1.50;;
65009;SDS011;51556;50.002;22.014;2023-07-30T14:02:54;2.10;;;1.60;;
65009;SDS011;51556;50.002;22.014;2023-07-30T14:05:20;1.50;;;1.20;;
65009;SDS011;51556;50.002;22.014;2023-07-30T14:07:45;1.70;;;1.00;;
65009;SDS011;51556;50.002;22.014;2023-07-30T14:10:11;1.40;;;1.00;;
65009;SDS011;51556;50.002;22.014;2023-07-30T14:12:37;1.40;;;1.20;;
65009;SDS011;51556;50.002;22.014;2023-07-30T14:15:03;1.50;;;1.10;;
65009;SDS011;51556;50.002;22.014;2023-07-30T14:17:28;1.90;;;1.40;;
65009;SDS011;51556;50.002;22.014;2023-07-30T14:19:54;1.60;;;1.20;;
65009;SDS011;51556;50.002;22.014;2023-07-30T14:22:21;2.00;;;1.20;;
65009;SDS011;51556;50.002;22.014;2023-07-30T14:24:47;1.40;;;1.10;;
65009;SDS011;51556;50.002;22.014;2023-07-30T14:27:12;4.70;;;2.40;;
65009;SDS011;51556;50.002;22.014;2023-07-30T14:29:38;3.50;;;2.30;;
65009;SDS011;51556;50.002;22.014;2023-07-30T14:32:03;1.90;;;1.50;;
65009;SDS011;51556;50.002;22.014;2023-07-30T14:34:29;2.60;;;1.40;;
65009;SDS011;51556;50.002;22.014;2023-07-30T14:36:54;2.10;;;1.70;;
65009;SDS011;51556;50.002;22.014;2023-07-30T14:39:20;2.90;;;1.80;;